Time;durP1;ratioP1;P1;durP2;ratioP2;P2;SDS_P1;SDS_P2;PMS_P1;PMS_P2;Temp;Humidity;BMP_temperature;BMP_pressure;BME280_temperature;BME280_humidity;BME280_pressure;Samples;Min_cycle;Max_cycle;Signal;HPM_P1;HPM_P2
2023/09/11 00:01:00;;;;;;;25.48;22.20;;;;;;;19.24;79.66;101667.97;7396198;19;20018;-61
2023/09/11 00:03:28;;;;;;;23.60;19.60;;;;;;;19.26;80.01;101667.81;7395263;19;20043;-62
2023/09/11 00:06:04;;;;;;;21.85;19.25;;;;;;;19.42;79.51;101668.03;7396103;19;20028;-61
2023/09/11 00:08:33;;;;;;;22.33;19.48;;;;;;;19.44;79.04;101671.41;7397594;19;20082;-61
2023/09/11 00:11:01;;;;;;;23.73;19.50;;;;;;;19.43;79.09;101656.31;7397117;19;20082;-60
2023/09/11 00:13:29;;;;;;;21.75;18.75;;;;;;;19.43;79.00;101654.47;7396022;19;20018;-60
2023/09/11 00:15:57;;;;;;;22.88;19.52;;;;;;;19.39;78.58;101652.22;7397588;19;20043;-60
2023/09/11 00:18:25;;;;;;;22.30;18.73;;;;;;;19.28;79.27;101655.09;7397051;19;20025;-62
2023/09/11 00:20:53;;;;;;;20.77;17.90;;;;;;;19.31;79.25;101658.34;7395213;19;20081;-62
2023/09/11 00:23:21;;;;;;;19.88;17.15;;;;;;;19.35;79.09;101648.16;7395434;19;20374;-63
2023/09/11 00:25:48;;;;;;;21.10;17.92;;;;;;;19.40;78.35;101643.16;7397514;19;20022;-63
2023/09/11 00:28:16;;;;;;;19.77;17.63;;;;;;;19.17;79.14;101638.16;7396521;19;20018;-63
2023/09/11 00:30:43;;;;;;;22.05;19.00;;;;;;;18.91;80.05;101634.44;7396770;19;20047;-63
2023/09/11 00:33:11;;;;;;;21.30;18.48;;;;;;;18.96;79.88;101633.03;7395229;19;20362;-62
2023/09/11 00:35:43;;;;;;;21.23;18.10;;;;;;;18.92;79.61;101636.97;7396365;19;20059;-63
2023/09/11 00:38:11;;;;;;;18.63;16.00;;;;;;;18.95;79.49;101628.63;7397613;19;20346;-62
2023/09/11 00:40:38;;;;;;;16.48;14.05;;;;;;;19.11;78.42;101624.47;7394354;19;20014;-62
2023/09/11 00:43:06;;;;;;;22.40;17.73;;;;;;;19.04;78.19;101626.94;7394174;19;20030;-61
2023/09/11 00:45:35;;;;;;;19.35;15.15;;;;;;;18.75;78.98;101619.78;7396396;19;20376;-62
2023/09/11 00:48:04;;;;;;;18.10;15.02;;;;;;;18.70;79.07;101619.38;7396608;19;20019;-63
2023/09/11 00:50:32;;;;;;;19.23;14.32;;;;;;;18.89;78.43;101621.19;7396734;19;20022;-61
2023/09/11 00:53:01;;;;;;;18.35;15.38;;;;;;;18.78;78.42;101618.66;7395249;19;20052;-61
2023/09/11 00:55:28;;;;;;;19.50;14.98;;;;;;;18.90;77.97;101605.91;7396824;19;20058;-61
2023/09/11 00:57:56;;;;;;;17.30;14.30;;;;;;;18.92;77.57;101602.06;7396941;19;20019;-61
2023/09/11 01:00:23;;;;;;;16.95;13.52;;;;;;;18.88;77.80;101594.47;7392609;19;20014;-60
2023/09/11 01:02:51;;;;;;;18.63;14.40;;;;;;;18.86;77.67;101597.31;7395196;19;20089;-61
2023/09/11 01:05:22;;;;;;;18.42;13.85;;;;;;;18.91;77.46;101591.50;7398241;19;20492;-58
2023/09/11 01:07:50;;;;;;;17.77;14.18;;;;;;;18.91;77.53;101599.53;7396631;19;20467;-61
2023/09/11 01:10:17;;;;;;;17.00;13.80;;;;;;;18.90;77.40;101596.03;7394848;19;20035;-61
2023/09/11 01:12:45;;;;;;;16.85;13.63;;;;;;;18.89;77.02;101591.66;7396750;19;20014;-63
2023/09/11 01:15:12;;;;;;;16.52;13.48;;;;;;;18.87;76.99;101599.00;7394528;19;20551;-63
2023/09/11 01:17:50;;;;;;;17.45;13.63;;;;;;;18.89;76.77;101594.34;7396807;19;20025;-63
2023/09/11 01:20:39;;;;;;;17.30;13.10;;;;;;;18.94;76.68;101588.53;7395326;19;20036;-63
2023/09/11 01:23:38;;;;;;;19.45;15.23;;;;;;;18.90;76.87;101585.28;7395469;19;20018;-63
2023/09/11 01:26:27;;;;;;;20.27;15.35;;;;;;;18.87;77.09;101582.88;7396075;19;20100;-63
2023/09/11 01:29:13;;;;;;;21.02;16.42;;;;;;;18.85;77.26;101592.06;7395969;19;20018;-61
2023/09/11 01:31:44;;;;;;;20.15;16.60;;;;;;;18.85;76.87;101589.38;7397937;19;20014;-64
2023/09/11 01:34:13;;;;;;;23.20;17.52;;;;;;;18.85;77.45;101590.25;7396858;19;20841;-64
2023/09/11 01:36:40;;;;;;;21.05;17.80;;;;;;;18.83;77.38;101586.84;7398304;19;20016;-64
2023/09/11 01:39:08;;;;;;;23.08;18.10;;;;;;;18.73;77.62;101578.84;7393548;19;20026;-64
2023/09/11 01:41:40;;;;;;;18.23;15.48;;;;;;;18.70;77.33;101579.13;7393376;19;20006;-63
2023/09/11 01:44:15;;;;;;;19.40;14.23;;;;;;;18.71;77.33;101578.13;7392976;19;20022;-63
2023/09/11 01:46:45;;;;;;;17.45;13.15;;;;;;;18.65;77.24;101584.03;7394279;19;20018;-62
2023/09/11 01:49:16;;;;;;;16.48;12.10;;;;;;;18.74;76.45;101580.53;7392757;19;20022;-62
2023/09/11 01:51:44;;;;;;;14.38;10.10;;;;;;;18.66;76.47;101583.06;7392935;19;20022;-62
2023/09/11 01:54:13;;;;;;;13.48;10.20;;;;;;;18.66;75.93;101579.53;7390561;19;20033;-62
2023/09/11 01:56:40;;;;;;;14.27;9.63;;;;;;;18.61;76.11;101585.31;7394323;19;20189;-60
2023/09/11 01:59:08;;;;;;;12.75;9.27;;;;;;;18.56;76.21;101590.28;7394394;19;20781;-60
2023/09/11 02:01:35;;;;;;;13.77;9.80;;;;;;;18.54;76.05;101586.06;7393190;19;20523;-60
2023/09/11 02:04:03;;;;;;;14.88;10.60;;;;;;;18.51;75.93;101582.69;7393051;19;20047;-61
2023/09/11 02:06:31;;;;;;;13.25;9.98;;;;;;;18.49;76.46;101587.34;7394377;19;20019;-63
2023/09/11 02:08:59;;;;;;;14.43;10.98;;;;;;;18.41;76.13;101584.53;7392706;19;20020;-61
2023/09/11 02:11:26;;;;;;;13.23;9.77;;;;;;;18.37;76.41;101585.81;7394417;19;20010;-62
2023/09/11 02:13:54;;;;;;;12.43;9.85;;;;;;;18.44;75.98;101581.56;7392043;19;20055;-61
2023/09/11 02:16:21;;;;;;;12.43;9.10;;;;;;;18.50;75.72;101578.28;7393059;19;20393;-61
2023/09/11 02:18:49;;;;;;;13.63;10.23;;;;;;;18.44;75.62;101570.84;7391952;19;20013;-61
2023/09/11 02:21:16;;;;;;;13.68;9.70;;;;;;;18.32;76.12;101566.63;7392505;19;20019;-61
2023/09/11 02:23:44;;;;;;;11.50;8.55;;;;;;;18.27;76.08;101561.66;7389810;19;20018;-61
2023/09/11 02:26:11;;;;;;;11.25;8.43;;;;;;;18.27;75.91;101568.88;7390940;19;20476;-60
2023/09/11 02:28:40;;;;;;;10.80;7.85;;;;;;;18.29;75.51;101568.75;7391442;19;20029;-60
2023/09/11 02:31:08;;;;;;;10.25;7.18;;;;;;;18.31;75.34;101558.72;7393312;19;20015;-61
2023/09/11 02:33:36;;;;;;;11.20;7.70;;;;;;;18.26;75.54;101560.00;7391327;19;20010;-62
2023/09/11 02:36:03;;;;;;;9.20;6.90;;;;;;;18.26;75.18;101562.66;7392167;19;20035;-61
2023/09/11 02:38:31;;;;;;;10.43;7.57;;;;;;;18.18;75.30;101567.91;7390650;19;20033;-61
2023/09/11 02:40:59;;;;;;;11.70;7.75;;;;;;;18.16;75.29;101560.97;7389706;19;20373;-60
2023/09/11 02:43:39;;;;;;;10.88;7.28;;;;;;;18.13;75.59;101555.94;7389376;19;20014;-60
2023/09/11 02:46:06;;;;;;;9.77;7.13;;;;;;;18.12;75.14;101552.38;7392642;19;20038;-60
2023/09/11 02:48:36;;;;;;;8.77;6.95;;;;;;;18.07;75.53;101554.66;7392467;19;20366;-61
2023/09/11 02:51:04;;;;;;;10.52;7.50;;;;;;;17.95;75.82;101558.47;7391675;19;20023;-61
2023/09/11 02:53:31;;;;;;;9.98;7.50;;;;;;;18.01;75.53;101555.22;7389070;19;20643;-61
2023/09/11 02:55:59;;;;;;;10.82;7.40;;;;;;;18.03;75.44;101545.19;7392106;19;20495;-61
2023/09/11 02:58:27;;;;;;;9.90;6.80;;;;;;;18.01;75.44;101544.50;7391786;19;20017;-61
2023/09/11 03:00:59;;;;;;;9.70;7.38;;;;;;;18.06;75.27;101550.28;7389669;19;20022;-61
2023/09/11 03:03:27;;;;;;;8.32;6.13;;;;;;;18.03;75.42;101538.00;7390840;19;20018;-61
2023/09/11 03:06:00;;;;;;;8.85;6.95;;;;;;;18.04;75.64;101536.16;7391533;19;20405;-61
2023/09/11 03:08:28;;;;;;;8.63;7.15;;;;;;;18.02;75.38;101541.69;7391659;19;20380;-60
2023/09/11 03:11:05;;;;;;;8.77;7.13;;;;;;;18.00;75.47;101538.28;7391672;19;20014;-60
2023/09/11 03:13:32;;;;;;;9.18;7.00;;;;;;;17.93;75.95;101534.50;7390589;19;20017;-61
2023/09/11 03:16:09;;;;;;;10.30;7.25;;;;;;;17.96;75.95;101538.72;7392251;19;20486;-60
2023/09/11 03:18:38;;;;;;;8.88;6.97;;;;;;;17.85;76.05;101537.00;7391827;19;20015;-60
2023/09/11 03:21:07;;;;;;;8.45;6.80;;;;;;;17.84;76.12;101535.34;7388283;19;20029;-60
2023/09/11 03:23:35;;;;;;;9.82;6.78;;;;;;;17.89;76.13;101526.88;7391714;19;20731;-60
2023/09/11 03:26:02;;;;;;;9.73;6.82;;;;;;;17.90;75.51;101518.69;7394639;19;20025;-61
2023/09/11 03:28:31;;;;;;;8.30;6.70;;;;;;;17.97;75.26;101522.50;7396795;19;20127;-62
2023/09/11 03:31:02;;;;;;;8.27;6.82;;;;;;;18.01;74.88;101523.06;7395647;19;20425;-61
2023/09/11 03:33:30;;;;;;;7.75;6.20;;;;;;;17.97;75.01;101516.28;7397409;19;20015;-61
2023/09/11 03:35:59;;;;;;;7.63;5.88;;;;;;;17.99;74.67;101519.66;7404021;19;20015;-62
2023/09/11 03:38:26;;;;;;;8.60;6.07;;;;;;;17.87;75.04;101524.34;7400749;19;20030;-62
2023/09/11 03:40:55;;;;;;;7.78;6.65;;;;;;;17.76;75.23;101521.81;7399963;19;20375;-62
2023/09/11 03:43:23;;;;;;;8.80;6.40;;;;;;;17.81;75.25;101518.69;7398676;19;20500;-63
2023/09/11 03:45:50;;;;;;;9.23;6.35;;;;;;;17.87;74.91;101518.97;7399680;19;20017;-62
2023/09/11 03:48:18;;;;;;;8.23;6.18;;;;;;;17.84;75.08;101513.91;7398553;19;20037;-62
2023/09/11 03:50:46;;;;;;;8.50;6.70;;;;;;;17.77;75.18;101510.94;7397105;19;20014;-62
2023/09/11 03:53:14;;;;;;;7.15;6.07;;;;;;;17.72;75.35;101502.44;7396783;19;20022;-61
2023/09/11 03:55:41;;;;;;;7.20;5.95;;;;;;;17.73;75.37;101505.97;7398135;19;20043;-63
2023/09/11 03:58:10;;;;;;;8.10;6.75;;;;;;;17.84;74.89;101505.84;7400460;19;20011;-62
2023/09/11 04:00:38;;;;;;;7.85;6.28;;;;;;;17.79;74.81;101502.78;7399015;19;20023;-62
2023/09/11 04:03:05;;;;;;;7.85;6.85;;;;;;;17.75;75.18;101501.34;7398113;19;20026;-62
2023/09/11 04:05:33;;;;;;;8.65;6.90;;;;;;;17.69;75.44;101502.72;7397442;19;20497;-62
2023/09/11 04:08:00;;;;;;;8.20;6.75;;;;;;;17.70;75.37;101498.19;7397573;19;20082;-62
2023/09/11 04:10:29;;;;;;;8.20;7.03;;;;;;;17.70;75.29;101504.41;7394534;19;20014;-62
2023/09/11 04:12:56;;;;;;;8.57;7.32;;;;;;;17.64;75.18;101502.31;7395715;19;20366;-61
2023/09/11 04:15:24;;;;;;;8.38;7.38;;;;;;;17.69;75.53;101497.38;7395616;19;20394;-62
2023/09/11 04:17:54;;;;;;;9.38;7.15;;;;;;;17.71;75.24;101494.56;7396879;19;20026;-62
2023/09/11 04:20:23;;;;;;;10.20;8.05;;;;;;;17.42;75.99;101498.06;7396788;19;20477;-62
2023/09/11 04:22:50;;;;;;;10.65;8.02;;;;;;;17.42;75.89;101484.66;7397279;19;20027;-62
2023/09/11 04:25:18;;;;;;;8.90;7.35;;;;;;;17.43;76.01;101485.50;7399363;19;20426;-62
2023/09/11 04:27:45;;;;;;;8.68;7.65;;;;;;;17.40;76.03;101483.97;7397488;19;20402;-60
2023/09/11 04:30:14;;;;;;;9.60;8.40;;;;;;;17.14;77.16;101483.66;7397785;19;20082;-60
2023/09/11 04:32:42;;;;;;;9.95;8.68;;;;;;;16.94;78.06;101484.56;7396940;19;20023;-60
2023/09/11 04:35:09;;;;;;;9.05;7.80;;;;;;;17.03;78.02;101481.09;7394091;19;20442;-60
2023/09/11 04:37:37;;;;;;;9.75;7.68;;;;;;;17.30;76.83;101478.59;7395141;19;20014;-61
2023/09/11 04:40:05;;;;;;;9.02;7.65;;;;;;;17.45;76.09;101481.72;7396262;19;20036;-61
2023/09/11 04:42:36;;;;;;;9.27;7.22;;;;;;;17.52;75.76;101482.00;7392200;19;20019;-62
2023/09/11 04:45:04;;;;;;;10.50;8.52;;;;;;;17.57;75.80;101490.47;7395564;19;20019;-62
2023/09/11 04:47:32;;;;;;;10.00;8.43;;;;;;;17.62;75.88;101480.16;7395708;19;20018;-62
2023/09/11 04:50:00;;;;;;;10.70;8.70;;;;;;;17.58;75.79;101475.22;7394507;19;20018;-61
2023/09/11 04:52:28;;;;;;;11.15;8.50;;;;;;;17.58;75.90;101485.94;7394016;19;20493;-61
2023/09/11 04:54:55;;;;;;;9.32;7.65;;;;;;;17.57;75.80;101479.75;7392473;19;20014;-62
2023/09/11 04:57:23;;;;;;;10.23;7.70;;;;;;;17.58;75.80;101476.06;7395621;19;20014;-62
2023/09/11 04:59:50;;;;;;;10.38;8.77;;;;;;;17.60;75.65;101479.47;7395214;19;20018;-61
2023/09/11 05:02:18;;;;;;;10.45;8.85;;;;;;;17.65;75.67;101481.72;7391688;19;20361;-62
2023/09/11 05:04:47;;;;;;;11.27;9.07;;;;;;;17.63;75.75;101478.31;7391222;19;20015;-62
2023/09/11 05:07:14;;;;;;;11.20;9.50;;;;;;;17.63;75.95;101489.91;7395364;19;20015;-62
2023/09/11 05:09:42;;;;;;;10.70;8.82;;;;;;;17.58;76.02;101481.44;7395626;19;20078;-63
2023/09/11 05:12:09;;;;;;;11.68;9.20;;;;;;;17.56;76.00;101483.41;7393477;19;20022;-61
2023/09/11 05:14:37;;;;;;;11.10;9.05;;;;;;;17.56;76.06;101478.06;7392668;19;20728;-62
2023/09/11 05:17:05;;;;;;;11.45;9.40;;;;;;;17.60;76.10;101492.88;7394749;19;20019;-59
2023/09/11 05:19:32;;;;;;;12.45;9.48;;;;;;;17.63;75.95;101479.19;7395210;19;20050;-61
2023/09/11 05:22:00;;;;;;;12.35;9.70;;;;;;;17.69;75.84;101486.66;7393447;19;20086;-60
2023/09/11 05:24:27;;;;;;;11.70;8.93;;;;;;;17.66;75.79;101478.03;7392302;19;20082;-60
2023/09/11 05:26:55;;;;;;;11.90;9.82;;;;;;;17.68;75.87;101479.59;7394468;19;20019;-61
2023/09/11 05:29:22;;;;;;;11.80;9.90;;;;;;;17.67;75.77;101477.94;7394364;19;20019;-60
2023/09/11 05:31:50;;;;;;;12.68;10.20;;;;;;;17.65;75.96;101479.88;7395151;19;20039;-61
2023/09/11 05:34:17;;;;;;;11.77;9.30;;;;;;;17.64;75.69;101475.53;7392958;19;20042;-61
2023/09/11 05:36:46;;;;;;;11.55;10.00;;;;;;;17.59;75.96;101477.78;7394265;19;20031;-60
2023/09/11 05:39:13;;;;;;;12.27;10.38;;;;;;;17.41;76.87;101477.63;7394111;19;20026;-61
2023/09/11 05:41:41;;;;;;;11.93;9.93;;;;;;;17.59;76.78;101477.78;7392457;19;20018;-60
2023/09/11 05:44:08;;;;;;;12.57;10.07;;;;;;;17.73;76.68;101481.84;7390537;19;20014;-61
2023/09/11 05:46:36;;;;;;;12.95;11.05;;;;;;;17.63;76.90;101476.53;7391850;19;20022;-60
2023/09/11 05:49:03;;;;;;;15.10;11.63;;;;;;;17.51;77.90;101482.97;7394200;19;20019;-61
2023/09/11 05:51:31;;;;;;;11.43;8.60;;;;;;;17.69;77.25;101481.28;7392465;19;20063;-60
2023/09/11 05:53:58;;;;;;;12.02;9.05;;;;;;;17.82;76.64;101477.50;7391855;19;20011;-61
2023/09/11 05:56:26;;;;;;;11.30;9.30;;;;;;;17.92;76.81;101483.72;7393871;19;20027;-61
2023/09/11 05:58:56;;;;;;;12.00;9.40;;;;;;;17.98;76.38;101472.44;7394052;19;20018;-62
2023/09/11 06:01:24;;;;;;;12.18;9.27;;;;;;;18.02;76.27;101484.56;7391535;19;20022;-60
2023/09/11 06:03:51;;;;;;;11.35;8.82;;;;;;;18.07;76.34;101478.75;7391566;19;20089;-60
2023/09/11 06:06:19;;;;;;;11.98;9.52;;;;;;;18.11;76.65;101474.78;7393178;19;20017;-61
2023/09/11 06:08:47;;;;;;;12.35;10.13;;;;;;;18.17;76.13;101480.44;7393464;19;20367;-61
2023/09/11 06:11:14;;;;;;;14.23;10.13;;;;;;;18.16;76.13;101483.22;7392526;19;20370;-60
2023/09/11 06:13:42;;;;;;;13.18;9.98;;;;;;;18.18;76.37;101479.44;7391784;19;20026;-60
2023/09/11 06:16:09;;;;;;;13.90;10.18;;;;;;;18.16;76.18;101481.44;7392880;19;20032;-60
2023/09/11 06:18:37;;;;;;;12.38;9.30;;;;;;;18.20;76.15;101485.50;7392989;19;20022;-60
2023/09/11 06:21:04;;;;;;;11.73;9.35;;;;;;;18.19;76.50;101488.31;7392662;19;20438;-60
2023/09/11 06:23:32;;;;;;;13.23;9.88;;;;;;;18.20;76.42;101485.50;7391191;19;20018;-60
2023/09/11 06:25:59;;;;;;;12.50;9.43;;;;;;;18.30;76.75;101490.00;7392396;19;20349;-59
2023/09/11 06:28:27;;;;;;;13.65;11.10;;;;;;;18.26;76.92;101492.94;7392944;19;20349;-61
2023/09/11 06:30:55;;;;;;;12.05;9.25;;;;;;;18.31;77.27;101491.66;7392862;19;20022;-60
2023/09/11 06:33:22;;;;;;;13.85;10.65;;;;;;;18.35;76.88;101487.69;7391791;19;20019;-59
2023/09/11 06:35:50;;;;;;;15.18;11.50;;;;;;;18.45;76.74;101493.91;7392168;19;20018;-60
2023/09/11 06:38:17;;;;;;;13.07;10.60;;;;;;;18.58;76.84;101489.03;7392161;19;20021;-59
2023/09/11 06:40:45;;;;;;;15.30;10.90;;;;;;;18.57;76.61;101491.88;7392228;19;20508;-60
2023/09/11 06:43:12;;;;;;;14.27;11.73;;;;;;;18.46;77.80;101487.53;7390631;19;20563;-60
2023/09/11 06:45:41;;;;;;;13.48;11.35;;;;;;;18.61;77.49;101486.06;7391898;19;20086;-60
2023/09/11 06:48:12;;;;;;;15.00;11.50;;;;;;;18.71;77.13;101475.34;7392303;19;20039;-60
2023/09/11 06:50:39;;;;;;;14.15;11.85;;;;;;;18.68;77.33;101473.75;7390246;19;20381;-61
2023/09/11 06:53:08;;;;;;;17.02;13.65;;;;;;;18.63;77.99;101484.09;7390797;19;20025;-61
2023/09/11 06:55:36;;;;;;;17.48;12.93;;;;;;;18.65;78.05;101471.34;7392100;19;20409;-60
2023/09/11 06:58:03;;;;;;;13.90;11.98;;;;;;;18.85;77.39;101476.66;7390706;19;20072;-60
2023/09/11 07:00:31;;;;;;;16.38;13.02;;;;;;;18.99;77.25;101473.47;7391771;19;20040;-61
2023/09/11 07:02:58;;;;;;;19.02;14.75;;;;;;;18.98;77.70;101469.94;7390164;19;20022;-61
2023/09/11 07:05:27;;;;;;;16.42;13.48;;;;;;;18.97;78.42;101476.31;7391539;19;20017;-61
2023/09/11 07:07:55;;;;;;;15.40;12.13;;;;;;;19.12;78.16;101475.81;7391938;19;20362;-60
2023/09/11 07:10:24;;;;;;;17.35;14.48;;;;;;;19.21;77.98;101466.84;7392897;19;20035;-60
2023/09/11 07:13:07;;;;;;;17.52;13.30;;;;;;;19.26;78.00;101471.75;7391453;19;20035;-61
2023/09/11 07:15:35;;;;;;;18.73;12.88;;;;;;;19.41;77.69;101473.75;7391873;19;20039;-61
2023/09/11 07:18:02;;;;;;;15.48;12.05;;;;;;;19.55;77.25;101474.22;7391643;19;20484;-60
2023/09/11 07:20:30;;;;;;;15.85;11.85;;;;;;;19.62;77.49;101476.19;7392339;19;20020;-60
2023/09/11 07:22:57;;;;;;;16.00;11.27;;;;;;;19.67;77.55;101468.50;7390184;19;20383;-60
2023/09/11 07:25:25;;;;;;;16.48;10.82;;;;;;;19.75;77.11;101461.50;7391788;19;20019;-58
2023/09/11 07:27:55;;;;;;;17.00;11.63;;;;;;;19.87;76.98;101463.78;7391724;19;20020;-59
2023/09/11 07:30:23;;;;;;;15.50;11.32;;;;;;;19.96;77.27;101464.69;7391351;19;20021;-59
2023/09/11 07:32:52;;;;;;;18.85;12.73;;;;;;;20.09;76.80;101461.59;7388736;19;20026;-59
2023/09/11 07:35:21;;;;;;;20.25;13.82;;;;;;;20.19;76.50;101451.56;7390663;19;20544;-57
2023/09/11 07:37:49;;;;;;;20.58;12.80;;;;;;;20.25;75.40;101448.22;7390682;19;20039;-60
2023/09/11 07:40:17;;;;;;;16.60;12.20;;;;;;;20.32;75.78;101445.75;7389394;19;20023;-60
2023/09/11 07:42:44;;;;;;;17.27;12.40;;;;;;;20.39;75.34;101438.72;7389146;19;20401;-59
2023/09/11 07:45:12;;;;;;;18.52;12.07;;;;;;;20.44;74.84;101439.09;7389801;19;20022;-60
2023/09/11 07:47:40;;;;;;;17.08;11.25;;;;;;;20.52;74.57;101436.47;7390184;19;20039;-59
2023/09/11 07:50:08;;;;;;;19.67;11.98;;;;;;;20.60;74.33;101430.28;7390310;19;20014;-60
2023/09/11 07:52:36;;;;;;;16.88;11.25;;;;;;;20.64;74.34;101421.72;7389936;19;20085;-60
2023/09/11 07:55:03;;;;;;;17.70;12.13;;;;;;;20.71;74.79;101418.38;7389715;19;20030;-60
2023/09/11 07:57:31;;;;;;;18.35;11.50;;;;;;;20.81;74.55;101428.00;7389725;19;20022;-59
2023/09/11 08:00:04;;;;;;;15.95;11.63;;;;;;;20.83;74.46;101420.59;7389968;19;20105;-59
2023/09/11 08:02:33;;;;;;;17.63;11.65;;;;;;;20.91;75.17;101419.81;7389339;19;20022;-60
2023/09/11 08:05:00;;;;;;;17.98;11.55;;;;;;;20.97;74.58;101416.44;7389288;19;20043;-59
2023/09/11 08:07:28;;;;;;;19.60;11.05;;;;;;;21.02;74.63;101424.84;7389698;19;20339;-59
2023/09/11 08:09:58;;;;;;;17.25;11.27;;;;;;;21.11;73.75;101423.88;7394810;19;20031;-60
2023/09/11 08:12:25;;;;;;;19.63;11.15;;;;;;;21.20;73.87;101430.13;7396901;19;20023;-60
2023/09/11 08:14:53;;;;;;;17.48;10.00;;;;;;;21.25;72.98;101430.44;7393428;19;20580;-60
2023/09/11 08:17:20;;;;;;;17.60;9.68;;;;;;;21.35;72.51;101428.47;7396993;19;20014;-60
2023/09/11 08:19:49;;;;;;;15.82;9.68;;;;;;;21.40;71.88;101434.19;7396758;19;20014;-59
2023/09/11 08:22:17;;;;;;;18.55;9.98;;;;;;;21.48;72.01;101422.59;7396023;19;20018;-60
2023/09/11 08:24:44;;;;;;;15.13;9.55;;;;;;;21.51;71.92;101427.63;7393507;19;20014;-59
2023/09/11 08:27:12;;;;;;;16.92;10.00;;;;;;;21.57;71.54;101426.97;7395123;19;20416;-60
2023/09/11 08:29:39;;;;;;;17.90;10.27;;;;;;;21.63;71.19;101422.75;7396621;19;20039;-60
2023/09/11 08:32:07;;;;;;;15.70;9.50;;;;;;;21.72;70.88;101421.75;7396572;19;20070;-60
2023/09/11 08:34:34;;;;;;;15.75;9.45;;;;;;;21.80;70.36;101429.84;7393219;19;20491;-60
2023/09/11 08:37:02;;;;;;;14.82;9.80;;;;;;;21.83;70.44;101423.28;7394919;19;20093;-59
2023/09/11 08:39:29;;;;;;;19.02;9.65;;;;;;;21.93;69.69;101432.00;7396263;19;20010;-59
2023/09/11 08:41:59;;;;;;;15.18;9.65;;;;;;;21.95;69.86;101419.19;7396144;19;20021;-58
2023/09/11 08:44:27;;;;;;;16.75;9.55;;;;;;;22.04;69.78;101426.25;7393418;19;20022;-59
2023/09/11 08:46:58;;;;;;;17.38;9.40;;;;;;;22.05;70.07;101432.47;7396579;19;20563;-59
2023/09/11 08:49:32;;;;;;;15.23;10.40;;;;;;;22.12;69.75;101426.22;7395665;19;20025;-59
2023/09/11 08:52:03;;;;;;;17.95;9.48;;;;;;;22.14;69.25;101420.72;7396147;19;20022;-60
2023/09/11 08:54:37;;;;;;;15.18;10.13;;;;;;;22.21;69.05;101420.84;7393404;19;20014;-60
2023/09/11 08:57:06;;;;;;;;;;;;;;;22.12;69.62;101417.28;7396380;19;20018;-60
2023/09/11 08:59:37;;;;;;;15.05;9.07;;;;;;;22.16;69.80;101418.66;7395807;19;19926;-60
2023/09/11 09:02:06;;;;;;;16.17;9.13;;;;;;;22.30;69.62;101419.81;7395736;19;20483;-60
2023/09/11 09:04:35;;;;;;;17.70;8.68;;;;;;;22.43;69.11;101422.78;7391788;19;20019;-60
2023/09/11 09:07:05;;;;;;;20.38;9.52;;;;;;;22.47;68.83;101413.31;7395513;19;20484;-59
2023/09/11 09:09:33;;;;;;;19.77;9.25;;;;;;;22.49;68.98;101416.72;7395726;19;20022;-60
2023/09/11 09:12:02;;;;;;;17.27;9.15;;;;;;;22.64;68.64;101414.13;7395586;19;20035;-60
2023/09/11 09:14:30;;;;;;;17.30;8.10;;;;;;;22.71;68.18;101412.41;7392210;19;20570;-61
2023/09/11 09:17:00;;;;;;;18.58;9.57;;;;;;;22.72;68.02;101405.13;7395445;19;20018;-61
2023/09/11 09:19:28;;;;;;;18.23;8.75;;;;;;;22.76;68.02;101407.28;7395146;19;20014;-59
2023/09/11 09:22:16;;;;;;;28.08;8.95;;;;;;;22.84;68.55;101406.41;7393387;19;20010;-61
2023/09/11 09:25:01;;;;;;;16.50;8.25;;;;;;;22.86;68.54;101399.81;7390950;19;20127;-60
2023/09/11 09:27:35;;;;;;;17.60;8.25;;;;;;;22.94;68.07;101408.94;7395699;19;20026;-61
2023/09/11 09:30:03;;;;;;;14.65;8.20;;;;;;;23.02;68.45;101409.72;7394409;19;20484;-60
2023/09/11 09:32:32;;;;;;;16.10;8.57;;;;;;;23.13;67.35;101402.22;7394242;19;20094;-61
2023/09/11 09:35:00;;;;;;;21.38;8.85;;;;;;;23.11;68.08;101400.53;7393893;19;20019;-59
2023/09/11 09:37:29;;;;;;;17.35;8.48;;;;;;;23.24;67.46;101396.41;7394713;19;20086;-59
2023/09/11 09:39:56;;;;;;;16.38;8.32;;;;;;;23.32;67.45;101394.47;7394321;19;20018;-60
2023/09/11 09:42:24;;;;;;;17.90;8.15;;;;;;;23.34;66.91;101388.88;7394484;19;20022;-60
2023/09/11 09:44:53;;;;;;;18.88;9.13;;;;;;;23.52;66.46;101389.41;7391577;19;20495;-60
2023/09/11 09:47:22;;;;;;;19.90;9.68;;;;;;;23.45;66.78;101385.75;7393802;19;20026;-61
2023/09/11 09:49:57;;;;;;;17.02;9.07;;;;;;;23.43;67.61;101382.41;7394729;19;20025;-61
2023/09/11 09:52:26;;;;;;;19.30;9.43;;;;;;;23.46;67.86;101386.56;7392566;19;20017;-61
2023/09/11 09:54:59;;;;;;;20.42;10.40;;;;;;;23.50;67.79;101380.63;7389989;19;20100;-61
2023/09/11 09:57:27;;;;;;;21.77;10.80;;;;;;;23.47;67.85;101372.91;7394725;19;20019;-60
2023/09/11 09:59:58;;;;;;;22.75;10.95;;;;;;;23.58;67.61;101375.16;7393144;19;20492;-60
2023/09/11 10:02:28;;;;;;;18.73;10.40;;;;;;;23.57;67.62;101378.03;7393127;19;20381;-62
2023/09/11 10:05:03;;;;;;;19.98;10.80;;;;;;;23.71;67.21;101379.13;7391833;19;20022;-61
2023/09/11 10:07:38;;;;;;;23.40;10.18;;;;;;;23.77;66.28;101365.72;7392439;19;20023;-62
2023/09/11 10:10:18;;;;;;;23.83;10.23;;;;;;;23.84;66.52;101354.97;7392120;19;20025;-63
2023/09/11 10:12:49;;;;;;;22.88;9.18;;;;;;;23.86;66.70;101357.50;7393213;19;20018;-60
2023/09/11 10:15:17;;;;;;;16.60;8.35;;;;;;;23.94;66.75;101357.41;7391743;19;20014;-61
2023/09/11 10:17:44;;;;;;;17.23;8.32;;;;;;;23.91;66.38;101358.63;7392897;19;20018;-64
2023/09/11 10:20:12;;;;;;;18.65;8.95;;;;;;;24.05;66.26;101351.53;7391399;19;20018;-62
2023/09/11 10:22:40;;;;;;;15.77;7.97;;;;;;;24.09;66.27;101347.44;7392525;19;20519;-61
2023/09/11 10:25:07;;;;;;;18.88;8.48;;;;;;;24.16;65.74;101342.94;7391059;19;20014;-62
2023/09/11 10:27:35;;;;;;;21.35;9.05;;;;;;;24.22;65.94;101335.94;7392010;19;20026;-61
2023/09/11 10:30:06;;;;;;;17.42;8.23;;;;;;;24.35;66.08;101340.69;7393149;19;20015;-61
2023/09/11 10:32:43;;;;;;;16.65;8.52;;;;;;;24.27;66.40;101345.19;7390415;19;20030;-60
2023/09/11 10:35:11;;;;;;;19.20;8.43;;;;;;;24.16;66.26;101344.81;7391858;19;20505;-60
2023/09/11 10:37:41;;;;;;;18.52;8.82;;;;;;;24.27;65.66;101337.06;7393475;19;20029;-59
2023/09/11 10:40:11;;;;;;;21.95;8.40;;;;;;;24.24;66.27;101334.72;7393100;19;20022;-60
2023/09/11 10:42:41;;;;;;;20.13;8.13;;;;;;;24.42;65.28;101334.34;7393260;19;20033;-61
2023/09/11 10:45:28;;;;;;;19.95;8.23;;;;;;;24.63;63.49;101325.41;7393238;19;20014;-61
2023/09/11 10:47:56;;;;;;;19.88;8.10;;;;;;;24.58;64.45;101319.75;7394333;19;20010;-61
2023/09/11 10:50:29;;;;;;;23.48;7.97;;;;;;;24.71;63.78;101314.47;7394832;19;20029;-60
2023/09/11 10:52:56;;;;;;;16.58;8.07;;;;;;;24.63;64.30;101301.03;7392642;19;20467;-61
2023/09/11 10:55:24;;;;;;;19.48;8.07;;;;;;;24.61;64.48;101308.50;7394968;19;20022;-60
2023/09/11 10:57:53;;;;;;;17.75;8.63;;;;;;;24.78;64.26;101301.81;7390352;19;20050;-60
2023/09/11 11:00:22;;;;;;;17.60;8.20;;;;;;;24.87;63.83;101298.97;7391337;19;20014;-60
2023/09/11 11:02:52;;;;;;;23.95;7.38;;;;;;;24.92;63.40;101300.09;7390742;19;20035;-60
2023/09/11 11:05:19;;;;;;;20.77;7.88;;;;;;;25.08;62.80;101295.44;7392214;19;20018;-60
2023/09/11 11:07:49;;;;;;;19.83;8.10;;;;;;;25.12;62.53;101302.19;7391464;19;20014;-60
2023/09/11 11:10:17;;;;;;;21.02;7.50;;;;;;;25.10;62.68;101290.69;7395697;19;20018;-60
2023/09/11 11:12:46;;;;;;;24.17;7.47;;;;;;;25.13;62.60;101293.84;7391372;19;20022;-60
2023/09/11 11:15:19;;;;;;;20.70;7.95;;;;;;;25.26;62.38;101291.25;7390311;19;20019;-61
2023/09/11 11:18:04;;;;;;;18.45;7.20;;;;;;;25.35;61.83;101288.38;7390833;19;20018;-61
2023/09/11 11:20:33;;;;;;;19.25;7.20;;;;;;;25.26;62.65;101284.97;7392081;19;20018;-61
2023/09/11 11:23:12;;;;;;;20.40;7.65;;;;;;;25.24;62.92;101290.59;7388540;19;20046;-61